createdAt,value
2018-11-12T00:00:44.928Z,19.71
2018-11-12T00:01:45.139Z,19.71
2018-11-12T00:02:44.702Z,19.71
2018-11-12T00:03:44.848Z,19.72
2018-11-12T00:04:44.895Z,19.71
2018-11-12T00:05:45.125Z,19.7
2018-11-12T00:06:44.803Z,19.71
2018-11-12T00:07:45.668Z,19.71
2018-11-12T00:08:44.612Z,19.7
2018-11-12T00:09:44.686Z,19.7
2018-11-12T00:10:44.608Z,19.68
2018-11-12T00:11:44.770Z,19.7
2018-11-12T00:12:44.748Z,19.69
2018-11-12T00:13:44.857Z,19.68
2018-11-12T00:14:44.823Z,19.69
2018-11-12T00:15:45.156Z,19.68
2018-11-12T00:16:44.738Z,19.67
2018-11-12T00:17:44.747Z,19.69
2018-11-12T00:18:45.005Z,19.7
2018-11-12T00:19:44.810Z,19.67
2018-11-12T00:20:44.722Z,19.68
2018-11-12T00:21:44.974Z,19.67
2018-11-12T00:22:44.942Z,19.67
2018-11-12T00:23:44.858Z,19.68
2018-11-12T00:24:44.638Z,19.67
2018-11-12T00:25:45.061Z,19.67
2018-11-12T00:26:44.578Z,19.67
2018-11-12T00:27:44.672Z,19.67
2018-11-12T00:28:44.741Z,19.66
2018-11-12T00:29:44.568Z,19.67
2018-11-12T00:30:45.024Z,19.65
2018-11-12T00:31:44.688Z,19.67
2018-11-12T00:32:45.256Z,19.67
2018-11-12T00:33:44.698Z,19.66
2018-11-12T00:34:44.764Z,19.65
2018-11-12T00:35:44.658Z,19.65
2018-11-12T00:36:44.744Z,19.67
2018-11-12T00:37:44.775Z,19.65
2018-11-12T00:38:44.565Z,19.65
2018-11-12T00:39:44.937Z,19.63
2018-11-12T00:40:44.666Z,19.66
2018-11-12T00:41:44.759Z,19.63
2018-11-12T00:42:44.796Z,19.63
2018-11-12T00:43:44.842Z,19.65
2018-11-12T00:44:44.672Z,19.62
2018-11-12T00:45:44.727Z,19.66
2018-11-12T00:46:44.903Z,19.65
2018-11-12T00:47:44.589Z,19.62
2018-11-12T00:48:44.791Z,19.62
2018-11-12T00:49:44.661Z,19.65
2018-11-12T00:50:44.725Z,19.62
2018-11-12T00:51:44.713Z,19.62
2018-11-12T00:52:44.768Z,19.62
2018-11-12T00:53:44.544Z,19.62
2018-11-12T00:54:44.716Z,19.62
2018-11-12T00:55:44.635Z,19.62
2018-11-12T00:56:45.018Z,19.62
2018-11-12T00:57:44.921Z,19.61
2018-11-12T00:58:44.794Z,19.6
2018-11-12T00:59:44.909Z,19.61
2018-11-12T01:00:45.009Z,19.59
2018-11-12T01:01:45.305Z,19.59
2018-11-12T01:02:44.934Z,19.6
2018-11-12T01:03:44.728Z,19.61
2018-11-12T01:04:44.869Z,19.6
2018-11-12T01:05:45.188Z,19.59
2018-11-12T01:06:45.068Z,19.6
2018-11-12T01:07:44.714Z,19.59
2018-11-12T01:08:44.725Z,19.6
2018-11-12T01:09:45.017Z,19.59
2018-11-12T01:10:45.080Z,19.58
2018-11-12T01:11:44.991Z,19.59
2018-11-12T01:12:44.996Z,19.6
2018-11-12T01:13:45.004Z,19.59
2018-11-12T01:14:44.457Z,19.59
2018-11-12T01:15:44.997Z,19.59
2018-11-12T01:16:44.673Z,19.58
2018-11-12T01:17:44.758Z,19.59
2018-11-12T01:18:44.713Z,19.58
2018-11-12T01:19:45.102Z,19.59
2018-11-12T01:20:45.055Z,19.56
2018-11-12T01:21:44.856Z,19.57
2018-11-12T01:22:44.898Z,19.56
2018-11-12T01:23:44.502Z,19.57
2018-11-12T01:24:45.064Z,19.57
2018-11-12T01:25:44.896Z,19.56
2018-11-12T01:26:44.787Z,19.57
2018-11-12T01:27:44.911Z,19.56
2018-11-12T01:28:44.801Z,19.56
2018-11-12T01:29:44.806Z,19.57
2018-11-12T01:30:44.902Z,19.57
2018-11-12T01:31:44.653Z,19.56
2018-11-12T01:32:44.785Z,19.57
2018-11-12T01:33:44.738Z,19.54
2018-11-12T01:34:45.058Z,19.56
2018-11-12T01:35:45.355Z,19.56
2018-11-12T01:36:45.054Z,19.55
2018-11-12T01:37:44.700Z,19.56
2018-11-12T01:38:44.708Z,19.56
2018-11-12T01:39:44.884Z,19.54
2018-11-12T01:40:44.580Z,19.53
2018-11-12T01:41:45.006Z,19.55
2018-11-12T01:42:44.820Z,19.54
2018-11-12T01:43:44.889Z,19.52
2018-11-12T01:44:45.198Z,19.54
2018-11-12T01:45:44.755Z,19.53
2018-11-12T01:46:44.847Z,19.53
2018-11-12T01:47:44.941Z,19.53
2018-11-12T01:48:44.715Z,19.55
2018-11-12T01:49:44.955Z,19.55
2018-11-12T01:50:44.737Z,19.55
2018-11-12T01:51:44.740Z,19.53
2018-11-12T01:52:44.779Z,19.54
2018-11-12T01:53:44.751Z,19.52
2018-11-12T01:54:44.658Z,19.53
2018-11-12T01:55:44.944Z,19.52
2018-11-12T01:56:44.737Z,19.53
2018-11-12T01:57:45.630Z,19.53
2018-11-12T01:58:44.716Z,19.52
2018-11-12T01:59:44.370Z,19.53
2018-11-12T02:00:44.865Z,19.51
2018-11-12T02:01:45.160Z,19.53
2018-11-12T02:02:44.518Z,19.52
2018-11-12T02:03:44.626Z,19.5
2018-11-12T02:04:45.312Z,19.54
2018-11-12T02:05:44.654Z,19.52
2018-11-12T02:06:45.151Z,19.52
2018-11-12T02:07:44.600Z,19.53
2018-11-12T02:08:45.392Z,19.52
2018-11-12T02:09:44.621Z,19.5
2018-11-12T02:10:44.626Z,19.52
2018-11-12T02:11:44.971Z,19.51
2018-11-12T02:12:44.646Z,19.51
2018-11-12T02:13:44.761Z,19.52
2018-11-12T02:14:45.901Z,19.52
2018-11-12T02:15:44.704Z,19.52
2018-11-12T02:16:44.516Z,19.51
2018-11-12T02:17:44.488Z,19.5
2018-11-12T02:18:44.670Z,19.48
2018-11-12T02:19:44.691Z,19.52
2018-11-12T02:20:44.484Z,19.48
2018-11-12T02:21:45.085Z,19.52
2018-11-12T02:22:44.852Z,19.5
2018-11-12T02:23:44.639Z,19.48
2018-11-12T02:24:44.753Z,19.51
2018-11-12T02:25:45.107Z,19.48
2018-11-12T02:26:44.741Z,19.48
2018-11-12T02:27:44.819Z,19.48
2018-11-12T02:28:45.135Z,19.51
2018-11-12T02:29:45.117Z,19.48
2018-11-12T02:30:44.713Z,19.5
2018-11-12T02:31:44.785Z,19.5
2018-11-12T02:32:44.693Z,19.48
2018-11-12T02:33:44.651Z,19.47
2018-11-12T02:34:44.760Z,19.48
2018-11-12T02:35:44.770Z,19.5
2018-11-12T02:36:44.866Z,19.46
2018-11-12T02:37:44.579Z,19.48
2018-11-12T02:38:44.789Z,19.46
2018-11-12T02:39:44.810Z,19.48
2018-11-12T02:40:44.678Z,19.47
2018-11-12T02:41:44.988Z,19.47
2018-11-12T02:42:44.717Z,19.46
2018-11-12T02:43:44.745Z,19.48
2018-11-12T02:44:44.471Z,19.45
2018-11-12T02:45:44.778Z,19.45
2018-11-12T02:46:44.961Z,19.48
2018-11-12T02:47:44.663Z,19.47
2018-11-12T02:48:44.740Z,19.48
2018-11-12T02:49:44.803Z,19.46
2018-11-12T02:50:44.809Z,19.45
2018-11-12T02:51:44.558Z,19.46
2018-11-12T02:52:44.998Z,19.47
2018-11-12T02:53:45.079Z,19.44
2018-11-12T02:54:44.641Z,19.45
2018-11-12T02:55:44.683Z,19.45
2018-11-12T02:56:44.928Z,19.44
2018-11-12T02:57:44.501Z,19.47
2018-11-12T02:58:44.684Z,19.45
2018-11-12T02:59:44.650Z,19.46
2018-11-12T03:00:44.654Z,19.45
2018-11-12T03:01:44.685Z,19.45
2018-11-12T03:02:44.759Z,19.45
2018-11-12T03:03:44.699Z,19.45
2018-11-12T03:04:44.850Z,19.44
2018-11-12T03:05:44.710Z,19.44
2018-11-12T03:06:45.028Z,19.45
2018-11-12T03:07:45.713Z,19.44
2018-11-12T03:08:44.864Z,19.45
2018-11-12T03:09:44.784Z,19.44
2018-11-12T03:10:44.830Z,19.45
2018-11-12T03:11:44.821Z,19.45
2018-11-12T03:12:44.641Z,19.44
2018-11-12T03:13:44.747Z,19.44
2018-11-12T03:14:44.569Z,19.45
2018-11-12T03:15:44.720Z,19.43
2018-11-12T03:16:44.732Z,19.45
2018-11-12T03:17:44.771Z,19.44
2018-11-12T03:18:44.852Z,19.42
2018-11-12T03:19:45.119Z,19.43
2018-11-12T03:20:45.062Z,19.44
2018-11-12T03:21:45.052Z,19.43
2018-11-12T03:22:44.997Z,19.43
2018-11-12T03:23:44.664Z,19.4
2018-11-12T03:24:45.081Z,19.43
2018-11-12T03:25:44.822Z,19.4
2018-11-12T03:26:44.913Z,19.43
2018-11-12T03:27:45.803Z,19.42
2018-11-12T03:28:44.677Z,19.4
2018-11-12T03:29:44.753Z,19.42
2018-11-12T03:30:44.850Z,19.44
2018-11-12T03:31:44.589Z,19.41
2018-11-12T03:32:44.704Z,19.4
2018-11-12T03:33:44.695Z,19.43
2018-11-12T03:34:44.450Z,19.4
2018-11-12T03:35:44.723Z,19.42
2018-11-12T03:36:44.550Z,19.4
2018-11-12T03:37:44.843Z,19.4
2018-11-12T03:38:44.460Z,19.41
2018-11-12T03:39:45.592Z,19.4
2018-11-12T03:40:44.516Z,19.42
2018-11-12T03:41:44.768Z,19.4
2018-11-12T03:42:45.023Z,19.4
2018-11-12T03:43:44.498Z,19.41
2018-11-12T03:44:44.668Z,19.41
2018-11-12T03:45:44.582Z,19.4
2018-11-12T03:46:44.616Z,19.41
2018-11-12T03:47:44.679Z,19.4
2018-11-12T03:48:44.612Z,19.39
2018-11-12T03:49:44.862Z,19.38
2018-11-12T03:50:44.592Z,19.39
2018-11-12T03:51:44.655Z,19.4
2018-11-12T03:52:44.595Z,19.39
2018-11-12T03:53:44.899Z,19.38
2018-11-12T03:54:45.408Z,19.39
2018-11-12T03:55:44.647Z,19.38
2018-11-12T03:56:44.697Z,19.41
2018-11-12T03:57:44.574Z,19.39
2018-11-12T03:58:44.950Z,19.38
2018-11-12T03:59:44.593Z,19.37
2018-11-12T04:00:44.686Z,19.39
2018-11-12T04:01:44.963Z,19.39
2018-11-12T04:02:44.722Z,19.39
2018-11-12T04:03:44.460Z,19.39
2018-11-12T04:04:44.625Z,19.39
2018-11-12T04:05:44.851Z,19.39
2018-11-12T04:06:44.539Z,19.37
2018-11-12T04:07:44.744Z,19.36
2018-11-12T04:08:44.610Z,19.39
2018-11-12T04:09:44.702Z,19.36
2018-11-12T04:10:44.468Z,19.37
2018-11-12T04:11:44.626Z,19.38
2018-11-12T04:12:44.988Z,19.37
2018-11-12T04:13:44.792Z,19.39
2018-11-12T04:14:44.746Z,19.38
2018-11-12T04:15:44.983Z,19.36
2018-11-12T04:16:45.300Z,19.38
2018-11-12T04:17:44.637Z,19.38
2018-11-12T04:18:44.971Z,19.38
2018-11-12T04:19:44.717Z,19.38
2018-11-12T04:20:45.150Z,19.36
2018-11-12T04:21:44.965Z,19.37
2018-11-12T04:22:44.960Z,19.36
2018-11-12T04:23:45.091Z,19.37
2018-11-12T04:24:44.894Z,19.37
2018-11-12T04:25:44.749Z,19.37
2018-11-12T04:26:44.827Z,19.38
2018-11-12T04:27:44.600Z,19.37
2018-11-12T04:28:44.865Z,19.35
2018-11-12T04:29:44.673Z,19.36
2018-11-12T04:30:44.894Z,19.38
2018-11-12T04:31:44.580Z,19.37
2018-11-12T04:32:44.423Z,19.37
2018-11-12T04:33:44.669Z,19.33
2018-11-12T04:34:44.771Z,19.36
2018-11-12T04:35:44.492Z,19.36
2018-11-12T04:36:44.647Z,19.36
2018-11-12T04:37:45.382Z,19.36
2018-11-12T04:38:44.941Z,19.36
2018-11-12T04:39:44.413Z,19.36
2018-11-12T04:40:44.678Z,19.36
2018-11-12T04:41:44.863Z,19.35
2018-11-12T04:42:44.656Z,19.31
2018-11-12T04:43:44.730Z,19.35
2018-11-12T04:44:44.580Z,19.36
2018-11-12T04:45:45.552Z,19.35
2018-11-12T04:46:44.462Z,19.36
2018-11-12T04:47:44.687Z,19.36
2018-11-12T04:48:44.851Z,19.36
2018-11-12T04:49:44.999Z,19.37
2018-11-12T04:50:45.061Z,19.36
2018-11-12T04:51:45.296Z,19.38
2018-11-12T04:52:44.632Z,19.36
2018-11-12T04:53:45.221Z,19.38
2018-11-12T04:54:44.847Z,19.4
2018-11-12T04:55:44.547Z,19.4
2018-11-12T04:56:44.454Z,19.38
2018-11-12T04:57:44.872Z,19.41
2018-11-12T04:58:44.623Z,19.38
2018-11-12T04:59:44.620Z,19.4
2018-11-12T05:00:44.820Z,19.4
2018-11-12T05:01:45.001Z,19.43
2018-11-12T05:02:44.472Z,19.43
2018-11-12T05:03:44.572Z,19.43
2018-11-12T05:04:44.728Z,19.45
2018-11-12T05:05:44.574Z,19.44
2018-11-12T05:06:44.736Z,19.44
2018-11-12T05:07:44.483Z,19.48
2018-11-12T05:08:44.695Z,19.48
2018-11-12T05:09:44.526Z,19.5
2018-11-12T05:10:44.615Z,19.5
2018-11-12T05:11:44.594Z,19.5
2018-11-12T05:12:44.868Z,19.52
2018-11-12T05:13:44.727Z,19.53
2018-11-12T05:14:44.517Z,19.54
2018-11-12T05:15:44.749Z,19.52
2018-11-12T05:16:45.769Z,19.54
2018-11-12T05:17:44.744Z,19.55
2018-11-12T05:18:44.692Z,19.59
2018-11-12T05:19:44.615Z,19.57
2018-11-12T05:20:44.424Z,19.59
2018-11-12T05:21:44.869Z,19.59
2018-11-12T05:22:44.883Z,19.6
2018-11-12T05:23:44.932Z,19.63
2018-11-12T05:24:44.689Z,19.61
2018-11-12T05:25:44.761Z,19.66
2018-11-12T05:26:44.600Z,19.65
2018-11-12T05:27:44.812Z,19.68
2018-11-12T05:28:44.973Z,19.66
2018-11-12T05:29:44.870Z,19.68
2018-11-12T05:30:44.625Z,19.69
2018-11-12T05:31:44.797Z,19.71
2018-11-12T05:32:44.860Z,19.7
2018-11-12T05:33:44.896Z,19.73
2018-11-12T05:34:44.922Z,19.72
2018-11-12T05:35:44.667Z,19.73
2018-11-12T05:36:44.526Z,19.75
2018-11-12T05:37:45.958Z,19.73
2018-11-12T05:38:44.649Z,19.76
2018-11-12T05:39:44.635Z,19.77
2018-11-12T05:40:44.682Z,19.77
2018-11-12T05:41:44.566Z,19.76
2018-11-12T05:42:44.729Z,19.77
2018-11-12T05:43:44.518Z,19.8
2018-11-12T05:44:45.365Z,19.79
2018-11-12T05:45:44.739Z,19.82
2018-11-12T05:46:44.792Z,19.82
2018-11-12T05:47:44.905Z,19.83
2018-11-12T05:48:44.529Z,19.83
2018-11-12T05:49:44.929Z,19.85
2018-11-12T05:50:44.461Z,19.84
2018-11-12T05:51:44.853Z,19.85
2018-11-12T05:52:44.648Z,19.85
2018-11-12T05:53:44.558Z,19.85
2018-11-12T05:54:44.630Z,19.86
2018-11-12T05:55:44.876Z,19.85
2018-11-12T05:56:44.756Z,19.88
2018-11-12T05:57:44.484Z,19.88
2018-11-12T05:58:44.927Z,19.87
2018-11-12T05:59:44.884Z,19.9
2018-11-12T06:00:44.786Z,19.89
2018-11-12T06:01:44.748Z,19.9
2018-11-12T06:02:44.728Z,19.91
2018-11-12T06:03:44.745Z,19.89
2018-11-12T06:04:44.884Z,19.9
2018-11-12T06:05:44.670Z,19.9
2018-11-12T06:06:44.441Z,19.89
2018-11-12T06:07:44.656Z,19.89
2018-11-12T06:08:44.512Z,19.9
2018-11-12T06:09:44.587Z,19.9
2018-11-12T06:10:44.884Z,19.89
2018-11-12T06:11:44.687Z,19.9
2018-11-12T06:12:44.652Z,19.91
2018-11-12T06:13:44.931Z,19.91
2018-11-12T06:14:44.901Z,19.9
2018-11-12T06:15:44.446Z,19.91
2018-11-12T06:16:44.525Z,19.92
2018-11-12T06:17:44.456Z,19.92
2018-11-12T06:18:44.603Z,19.91
2018-11-12T06:19:44.639Z,19.94
2018-11-12T06:20:44.725Z,19.92
2018-11-12T06:21:44.688Z,19.92
2018-11-12T06:22:45.632Z,19.9
2018-11-12T06:23:44.537Z,19.97
2018-11-12T06:24:44.524Z,19.92
2018-11-12T06:25:44.603Z,19.94
2018-11-12T06:26:44.720Z,19.95
2018-11-12T06:27:44.743Z,19.91
2018-11-12T06:28:44.656Z,19.94
2018-11-12T06:29:44.444Z,19.94
2018-11-12T06:30:44.658Z,19.91
2018-11-12T06:31:44.556Z,19.94
2018-11-12T06:32:44.698Z,19.94
2018-11-12T06:33:44.674Z,19.94
2018-11-12T06:34:44.523Z,19.92
2018-11-12T06:35:45.179Z,19.94
2018-11-12T06:36:45.025Z,19.92
2018-11-12T06:37:44.722Z,19.95
2018-11-12T06:38:44.546Z,19.92
2018-11-12T06:39:44.588Z,19.95
2018-11-12T06:40:44.538Z,19.94
2018-11-12T06:41:44.675Z,19.95
2018-11-12T06:42:45.886Z,19.94
2018-11-12T06:43:44.537Z,19.94
2018-11-12T06:44:44.619Z,19.94
2018-11-12T06:45:44.424Z,19.94
2018-11-12T06:46:44.685Z,19.92
2018-11-12T06:47:44.423Z,19.94
2018-11-12T06:48:44.539Z,19.94
2018-11-12T06:49:44.397Z,19.94
2018-11-12T06:50:44.791Z,19.94
2018-11-12T06:51:44.840Z,19.92
2018-11-12T06:52:45.152Z,19.94
2018-11-12T06:53:44.922Z,19.94
2018-11-12T06:54:44.478Z,19.94
2018-11-12T06:55:44.926Z,19.92
2018-11-12T06:56:44.482Z,19.96
2018-11-12T06:57:44.682Z,19.95
2018-11-12T06:58:44.667Z,19.92
2018-11-12T06:59:44.829Z,19.96
2018-11-12T07:00:45.018Z,19.95
2018-11-12T07:01:44.712Z,19.94
2018-11-12T07:02:44.574Z,19.94
2018-11-12T07:03:45.463Z,19.94
2018-11-12T07:04:44.655Z,19.95
2018-11-12T07:05:44.433Z,19.94
2018-11-12T07:06:45.369Z,19.92
2018-11-12T07:07:44.791Z,19.94
2018-11-12T07:08:44.580Z,19.94
2018-11-12T07:09:44.706Z,19.94
2018-11-12T07:10:44.670Z,19.92
2018-11-12T07:11:44.577Z,19.92
2018-11-12T07:12:44.831Z,19.94
2018-11-12T07:13:44.747Z,19.95
2018-11-12T07:14:44.398Z,19.94
2018-11-12T07:15:44.731Z,19.92
2018-11-12T07:16:44.820Z,19.94
2018-11-12T07:17:44.730Z,19.94
2018-11-12T07:18:44.962Z,19.94
2018-11-12T07:19:44.866Z,19.94
2018-11-12T07:20:45.174Z,19.92
2018-11-12T07:21:44.442Z,19.94
2018-11-12T07:22:44.613Z,19.94
2018-11-12T07:23:44.665Z,19.92
2018-11-12T07:24:44.883Z,19.94
2018-11-12T07:25:44.815Z,19.95
2018-11-12T07:26:44.539Z,19.94
2018-11-12T07:27:44.572Z,19.9
2018-11-12T07:28:44.816Z,19.94
2018-11-12T07:29:44.785Z,19.91
2018-11-12T07:30:45.148Z,19.95
2018-11-12T07:31:44.752Z,19.94
2018-11-12T07:32:44.486Z,19.94
2018-11-12T07:33:44.452Z,19.92
2018-11-12T07:34:44.539Z,19.94
2018-11-12T07:35:44.428Z,19.95
2018-11-12T07:36:44.767Z,19.94
2018-11-12T07:37:44.799Z,19.94
2018-11-12T07:38:44.789Z,19.92
2018-11-12T07:39:44.678Z,19.94
2018-11-12T07:40:44.499Z,19.94
2018-11-12T07:41:44.993Z,19.94
2018-11-12T07:42:44.881Z,19.94
2018-11-12T07:43:44.972Z,19.91
2018-11-12T07:44:44.403Z,19.94
2018-11-12T07:45:44.618Z,19.94
2018-11-12T07:46:44.852Z,19.94
2018-11-12T07:47:45.039Z,19.92
2018-11-12T07:48:45.313Z,19.92
2018-11-12T07:49:45.404Z,19.92
2018-11-12T07:50:44.426Z,19.91
2018-11-12T07:51:45.082Z,19.94
2018-11-12T07:52:44.795Z,19.94
2018-11-12T07:53:44.327Z,19.94
2018-11-12T07:54:44.943Z,19.94
2018-11-12T07:55:44.445Z,19.94
2018-11-12T07:56:45.078Z,19.95
2018-11-12T07:57:44.502Z,19.92
2018-11-12T07:58:44.627Z,19.94
2018-11-12T07:59:44.346Z,19.92
2018-11-12T08:00:44.502Z,19.94
2018-11-12T08:01:44.379Z,19.91
2018-11-12T08:02:44.337Z,19.94
2018-11-12T08:03:45.529Z,19.91
2018-11-12T08:04:44.511Z,19.92
2018-11-12T08:05:44.481Z,19.92
2018-11-12T08:06:44.481Z,19.95
2018-11-12T08:07:44.630Z,19.92
2018-11-12T08:08:44.497Z,19.91
2018-11-12T08:09:45.441Z,19.91
2018-11-12T08:10:44.593Z,19.91
2018-11-12T08:11:44.891Z,19.91
2018-11-12T08:12:44.634Z,19.94
2018-11-12T08:13:44.432Z,19.95
2018-11-12T08:14:45.146Z,19.91
2018-11-12T08:15:44.453Z,19.94
2018-11-12T08:16:44.491Z,19.95
2018-11-12T08:17:45.589Z,19.91
2018-11-12T08:18:44.571Z,19.92
2018-11-12T08:19:45.477Z,19.94
2018-11-12T08:20:44.414Z,19.92
2018-11-12T08:21:45.525Z,19.91
2018-11-12T08:22:44.833Z,19.9
2018-11-12T08:23:44.568Z,19.92
2018-11-12T08:24:45.937Z,19.94
2018-11-12T08:25:44.459Z,19.91
2018-11-12T08:26:45.123Z,19.92
2018-11-12T08:27:44.499Z,19.94
2018-11-12T08:28:44.627Z,19.91
2018-11-12T08:29:45.485Z,19.91
2018-11-12T08:30:44.477Z,19.92
2018-11-12T08:31:44.978Z,19.94
2018-11-12T08:32:45.182Z,19.91
2018-11-12T08:33:44.775Z,19.92
2018-11-12T08:34:44.687Z,19.94
2018-11-12T08:35:45.155Z,19.95
2018-11-12T08:36:45.202Z,19.94
2018-11-12T08:37:44.644Z,19.91
2018-11-12T08:38:44.380Z,19.94
2018-11-12T08:39:46.406Z,19.94
2018-11-12T08:40:45.895Z,19.94
2018-11-12T08:41:44.408Z,19.94
2018-11-12T08:42:44.653Z,19.94
2018-11-12T08:43:45.882Z,19.92
2018-11-12T08:44:44.760Z,19.96
2018-11-12T08:45:44.481Z,19.94
2018-11-12T08:46:44.757Z,19.92
2018-11-12T08:47:44.388Z,19.94
2018-11-12T08:48:44.931Z,19.92
2018-11-12T08:49:45.756Z,19.94
2018-11-12T08:50:44.474Z,19.92
2018-11-12T08:51:44.587Z,19.94
2018-11-12T08:52:44.485Z,19.94
2018-11-12T08:53:44.551Z,19.95
2018-11-12T08:54:44.868Z,19.95
2018-11-12T08:55:45.310Z,19.95
2018-11-12T08:56:44.345Z,19.96
2018-11-12T08:57:44.437Z,19.96
2018-11-12T08:58:44.459Z,19.96
2018-11-12T08:59:45.415Z,19.96
2018-11-12T09:00:45.275Z,19.95
2018-11-12T09:01:44.548Z,19.95
2018-11-12T09:02:44.654Z,19.94
2018-11-12T09:03:44.565Z,19.96
2018-11-12T09:04:44.708Z,19.96
2018-11-12T09:05:44.754Z,19.96
2018-11-12T09:06:44.693Z,19.95
2018-11-12T09:07:44.811Z,19.97
2018-11-12T09:08:44.915Z,19.96
2018-11-12T09:09:44.722Z,19.97
2018-11-12T09:10:45.174Z,19.98
2018-11-12T09:11:44.648Z,19.94
2018-11-12T09:12:44.521Z,19.96
2018-11-12T09:13:47.357Z,19.97
2018-11-12T09:14:44.302Z,19.98
2018-11-12T09:15:45.354Z,19.96
2018-11-12T09:16:44.583Z,19.97
2018-11-12T09:17:44.967Z,19.97
2018-11-12T09:18:44.679Z,19.96
2018-11-12T09:19:44.485Z,19.99
2018-11-12T09:20:44.507Z,19.96
2018-11-12T09:21:44.698Z,19.97
2018-11-12T09:22:44.522Z,19.97
2018-11-12T09:23:44.389Z,19.96
2018-11-12T09:24:44.592Z,19.98
2018-11-12T09:25:44.420Z,19.95
2018-11-12T09:26:44.945Z,19.99
2018-11-12T09:27:44.373Z,19.97
2018-11-12T09:28:44.560Z,19.99
2018-11-12T09:29:44.338Z,19.98
2018-11-12T09:30:53.392Z,19.99
2018-11-12T09:31:44.463Z,19.99
2018-11-12T09:32:47.210Z,19.99
2018-11-12T09:33:45.302Z,19.99
2018-11-12T09:34:44.850Z,19.99
2018-11-12T09:35:44.342Z,19.99
2018-11-12T09:36:45.267Z,19.98
2018-11-12T09:37:44.802Z,19.99
2018-11-12T09:38:45.244Z,19.99
2018-11-12T09:39:45.000Z,20
2018-11-12T09:40:44.339Z,20.01
2018-11-12T09:41:44.338Z,20.01
2018-11-12T09:42:44.436Z,19.99
2018-11-12T09:43:44.472Z,19.98
2018-11-12T09:44:44.881Z,19.98
2018-11-12T09:45:44.581Z,20
2018-11-12T09:46:44.933Z,19.99
2018-11-12T09:47:45.318Z,20
2018-11-12T09:48:45.111Z,20
2018-11-12T09:49:44.723Z,19.99
2018-11-12T09:50:44.967Z,20.01
2018-11-12T09:51:44.607Z,19.99
2018-11-12T09:52:45.182Z,20
2018-11-12T09:53:45.569Z,20
2018-11-12T09:54:45.543Z,19.99
2018-11-12T09:55:44.965Z,19.99
2018-11-12T09:56:44.914Z,20
2018-11-12T09:57:44.520Z,20
2018-11-12T09:58:45.382Z,20.01
2018-11-12T09:59:44.636Z,19.99
2018-11-12T10:00:47.308Z,19.99
2018-11-12T10:01:48.998Z,19.99
2018-11-12T10:02:51.730Z,20.01
2018-11-12T10:03:54.257Z,20.01
2018-11-12T10:04:54.458Z,20
2018-11-12T10:05:54.632Z,20.01
2018-11-12T10:06:54.489Z,20
2018-11-12T10:08:00.786Z,20
2018-11-12T10:09:02.260Z,20
2018-11-12T10:10:02.203Z,19.99
2018-11-12T10:11:04.437Z,19.99
2018-11-12T10:12:01.256Z,20.02
2018-11-12T10:13:01.184Z,20.01
2018-11-12T10:14:02.985Z,19.99
2018-11-12T10:14:52.901Z,20.01
2018-11-12T10:15:52.262Z,19.99
2018-11-12T10:17:01.117Z,20
2018-11-12T10:18:02.362Z,19.98
2018-11-12T10:18:44.876Z,20
2018-11-12T10:19:45.353Z,19.99
2018-11-12T10:20:44.717Z,19.99
2018-11-12T10:21:44.476Z,20.01
2018-11-12T10:22:44.452Z,20.01
2018-11-12T10:23:44.644Z,19.99
2018-11-12T10:24:44.437Z,19.99
2018-11-12T10:25:44.512Z,20.01
2018-11-12T10:26:44.868Z,20.01
2018-11-12T10:27:44.863Z,19.99
2018-11-12T10:28:44.678Z,20
2018-11-12T10:29:44.548Z,20.01
2018-11-12T10:30:44.764Z,20
2018-11-12T10:31:44.540Z,19.99
2018-11-12T10:32:44.553Z,20
2018-11-12T10:33:44.389Z,20.01
2018-11-12T10:34:44.440Z,20.01
2018-11-12T10:35:44.370Z,20
2018-11-12T10:36:44.520Z,19.99
2018-11-12T10:37:44.477Z,20
2018-11-12T10:38:44.857Z,20.01
2018-11-12T10:39:44.593Z,19.99
2018-11-12T10:40:45.090Z,20
2018-11-12T10:41:44.352Z,20.01
2018-11-12T10:42:45.394Z,20
2018-11-12T10:43:44.638Z,19.97
2018-11-12T10:44:44.728Z,19.99
2018-11-12T10:45:44.821Z,19.99
2018-11-12T10:46:44.362Z,20
2018-11-12T10:47:45.135Z,20
2018-11-12T10:48:44.369Z,19.99
2018-11-12T10:49:44.721Z,19.99
2018-11-12T10:50:44.557Z,19.98
2018-11-12T10:51:44.944Z,19.99
2018-11-12T10:52:44.989Z,19.98
2018-11-12T10:53:50.329Z,20
2018-11-12T10:54:45.669Z,19.98
2018-11-12T10:55:46.050Z,19.99
2018-11-12T10:56:44.702Z,20
2018-11-12T10:57:44.462Z,19.99
2018-11-12T10:58:44.707Z,20
2018-11-12T10:59:45.255Z,19.99
2018-11-12T11:00:45.160Z,19.99
2018-11-12T11:01:44.616Z,19.98
2018-11-12T11:02:44.319Z,19.99
2018-11-12T11:03:44.498Z,19.99
2018-11-12T11:04:44.369Z,19.99
2018-11-12T11:05:44.745Z,19.99
2018-11-12T11:06:44.401Z,19.97
2018-11-12T11:07:44.762Z,19.99
2018-11-12T11:08:44.365Z,20
2018-11-12T11:09:44.509Z,19.99
2018-11-12T11:10:44.401Z,19.99
2018-11-12T11:11:44.440Z,19.99
2018-11-12T11:12:44.653Z,19.99
2018-11-12T11:13:44.917Z,19.99
2018-11-12T11:14:44.813Z,19.99
2018-11-12T11:15:44.345Z,20
2018-11-12T11:16:44.476Z,20.01
2018-11-12T11:17:44.723Z,19.99
2018-11-12T11:18:44.735Z,20
2018-11-12T11:19:44.461Z,20
2018-11-12T11:20:44.417Z,20
2018-11-12T11:21:44.918Z,20.01
2018-11-12T11:22:44.351Z,20.01
2018-11-12T11:23:45.511Z,19.99
2018-11-12T11:24:44.624Z,20.01
2018-11-12T11:25:45.172Z,20
2018-11-12T11:26:46.040Z,20.01
2018-11-12T11:27:44.512Z,20.01
2018-11-12T11:28:44.214Z,20.01
2018-11-12T11:29:45.036Z,19.99
2018-11-12T11:30:44.490Z,20.01
2018-11-12T11:31:44.765Z,20.01
2018-11-12T11:32:44.759Z,20.01
2018-11-12T11:33:44.449Z,20
2018-11-12T11:34:44.341Z,20
2018-11-12T11:35:44.751Z,20.02
2018-11-12T11:36:44.551Z,20
2018-11-12T11:37:44.890Z,20.02
2018-11-12T11:38:44.947Z,20.01
2018-11-12T11:39:44.420Z,20.01
2018-11-12T11:40:45.440Z,20
2018-11-12T11:41:44.433Z,20.02
2018-11-12T11:42:44.552Z,20.01
2018-11-12T11:43:44.256Z,20.01
2018-11-12T11:44:44.773Z,20.02
2018-11-12T11:45:44.763Z,20.01
2018-11-12T11:46:44.301Z,20.01
2018-11-12T11:47:46.238Z,20.02
2018-11-12T11:48:44.830Z,20.02
2018-11-12T11:49:44.874Z,20.03
2018-11-12T11:50:45.899Z,20.02
2018-11-12T11:51:44.924Z,20.01
2018-11-12T11:52:44.407Z,20.03
2018-11-12T11:53:44.363Z,20.05
2018-11-12T11:54:44.512Z,20.01
2018-11-12T11:55:44.393Z,20.01
2018-11-12T11:56:46.455Z,20.01
2018-11-12T11:57:45.055Z,20
2018-11-12T11:58:44.433Z,20
2018-11-12T11:59:44.571Z,20.02
2018-11-12T12:00:44.412Z,20.02
2018-11-12T12:01:44.744Z,20.01
2018-11-12T12:02:45.186Z,20.02
2018-11-12T12:03:44.306Z,20.03
2018-11-12T12:04:44.755Z,20.03
2018-11-12T12:05:44.360Z,20.03
2018-11-12T12:06:44.509Z,20.02
2018-11-12T12:07:45.215Z,20.02
2018-11-12T12:08:45.982Z,20.04
2018-11-12T12:09:44.258Z,20.04
2018-11-12T12:10:44.467Z,20.04
2018-11-12T12:11:44.594Z,20.06
2018-11-12T12:12:44.698Z,20.04
2018-11-12T12:13:45.078Z,20.01
2018-11-12T12:14:44.364Z,20.04
2018-11-12T12:15:44.859Z,20.03
2018-11-12T12:16:44.956Z,20.03
2018-11-12T12:17:45.393Z,20.03
2018-11-12T12:18:44.921Z,20.04
2018-11-12T12:19:45.045Z,20.04
2018-11-12T12:20:44.859Z,20.03
2018-11-12T12:21:44.533Z,20.01
2018-11-12T12:22:44.726Z,20.03
2018-11-12T12:23:45.143Z,20.04
2018-11-12T12:24:46.206Z,20.05
2018-11-12T12:25:45.966Z,20.05
2018-11-12T12:26:44.398Z,20.04
2018-11-12T12:27:44.819Z,20.02
2018-11-12T12:28:44.423Z,20.04
2018-11-12T12:29:44.489Z,20.04
2018-11-12T12:30:44.251Z,20.04
2018-11-12T12:31:44.357Z,20.04
2018-11-12T12:32:45.267Z,20.04
2018-11-12T12:33:44.350Z,20.04
2018-11-12T12:34:45.083Z,20.05
2018-11-12T12:35:44.390Z,20.04
2018-11-12T12:36:45.363Z,20.03
2018-11-12T12:37:45.136Z,20.03
2018-11-12T12:38:44.321Z,20.03
2018-11-12T12:39:44.443Z,20.03
2018-11-12T12:40:44.875Z,20.04
2018-11-12T12:41:44.397Z,20.04
2018-11-12T12:42:44.298Z,20.04
2018-11-12T12:43:44.731Z,20.05
2018-11-12T12:44:45.417Z,20.05
2018-11-12T12:45:46.176Z,20.04
2018-11-12T12:46:44.243Z,20.06
2018-11-12T12:47:44.327Z,20.04
2018-11-12T12:48:44.328Z,20.05
2018-11-12T12:49:45.310Z,20.06
2018-11-12T12:50:44.356Z,20.06
2018-11-12T12:51:44.431Z,20.05
2018-11-12T12:52:44.435Z,20.06
2018-11-12T12:53:44.825Z,20.07
2018-11-12T12:54:44.714Z,20.04
2018-11-12T12:55:46.303Z,20.04
2018-11-12T12:56:44.744Z,20.05
2018-11-12T12:57:44.453Z,20.06
2018-11-12T12:58:44.774Z,20.06